createdAt,value
2022-10-05T00:00:22.492Z,33.37602
2022-10-05T00:05:23.574Z,33.38208
2022-10-05T00:10:24.681Z,33.45395
2022-10-05T00:15:25.647Z,33.49595
2022-10-05T00:20:26.619Z,33.67929
2022-10-05T00:25:27.537Z,33.57531
2022-10-05T00:30:28.482Z,33.67099
2022-10-05T00:35:29.642Z,33.73068
2022-10-05T00:40:30.545Z,33.74406
2022-10-05T00:45:31.593Z,33.87047
2022-10-05T00:50:32.692Z,34.00124
2022-10-05T00:55:33.641Z,34.04312
2022-10-05T01:00:34.710Z,34.14968
2022-10-05T01:05:35.648Z,34.20913
2022-10-05T01:10:36.594Z,34.17286
2022-10-05T01:15:37.494Z,34.21985
2022-10-05T01:20:38.416Z,34.14272
2022-10-05T01:30:39.850Z,33.89836
2022-10-05T01:35:40.868Z,34.03594
2022-10-05T01:40:41.801Z,34.0596
2022-10-05T01:45:42.939Z,34.01347
2022-10-05T01:50:43.969Z,34.16169
2022-10-05T01:55:44.947Z,34.16265
2022-10-05T02:00:45.937Z,34.18681
2022-10-05T02:05:47.056Z,34.22225
2022-10-05T02:10:48.237Z,34.21086
2022-10-05T02:15:49.251Z,34.3124
2022-10-05T02:20:50.267Z,34.34899
2022-10-05T02:25:51.271Z,34.41949
2022-10-05T02:30:52.218Z,34.50259
2022-10-05T02:35:53.194Z,34.58595
2022-10-05T02:40:54.120Z,34.67502
2022-10-05T02:45:55.146Z,34.66363
2022-10-05T02:50:56.123Z,34.6995
2022-10-05T02:55:57.137Z,34.77632
2022-10-05T03:00:58.142Z,34.8002
2022-10-05T03:05:59.347Z,34.8304
2022-10-05T03:11:00.576Z,34.94203
2022-10-05T03:16:01.782Z,34.89451
2022-10-05T03:21:02.828Z,34.91272
2022-10-05T03:26:03.946Z,34.94802
2022-10-05T03:31:04.961Z,35.02437
2022-10-05T03:36:06.033Z,35.04792
2022-10-05T03:41:07.055Z,35.07122
2022-10-05T03:46:08.064Z,35.14215
2022-10-05T03:51:09.063Z,35.27694
2022-10-05T03:56:10.008Z,35.25218
2022-10-05T04:01:11.020Z,35.18046
2022-10-05T04:06:12.095Z,35.12689
2022-10-05T04:11:13.112Z,35.05635
2022-10-05T04:16:14.147Z,35.17972
2022-10-05T04:21:16.486Z,35.13165
2022-10-05T04:26:20.010Z,35.00131
2022-10-05T04:31:21.032Z,34.67351
2022-10-05T04:36:22.106Z,34.88747
2022-10-05T04:41:23.094Z,34.95345
2022-10-05T04:46:24.371Z,34.98344
2022-10-05T04:51:25.452Z,35.09561
2022-10-05T04:56:26.403Z,35.06583
2022-10-05T05:01:27.355Z,35.04194
2022-10-05T05:06:28.337Z,35.066
2022-10-05T05:11:29.240Z,34.90284
2022-10-05T05:16:30.432Z,34.55092
2022-10-05T05:21:31.459Z,34.60028
2022-10-05T05:26:35.615Z,34.7605
2022-10-05T05:31:39.857Z,34.86803
2022-10-05T05:36:40.830Z,34.92756
2022-10-05T05:41:41.780Z,34.96341
2022-10-05T05:47:02.892Z,35.08689
2022-10-05T05:52:04.361Z,35.00333
2022-10-05T05:57:05.372Z,34.97945
2022-10-05T06:02:06.390Z,34.99126
2022-10-05T06:07:07.496Z,34.9147
2022-10-05T06:12:08.483Z,34.98438
2022-10-05T06:17:09.638Z,34.82402
2022-10-05T06:22:10.575Z,34.79994
2022-10-05T06:27:11.541Z,34.79939
2022-10-05T06:32:12.500Z,34.72141
2022-10-05T06:37:13.495Z,34.75617
2022-10-05T06:42:14.436Z,34.63103
2022-10-05T06:47:15.334Z,34.63053
2022-10-05T06:52:16.377Z,34.62389
2022-10-05T06:57:21.589Z,34.59292
2022-10-05T07:02:22.622Z,34.52142
2022-10-05T07:07:23.646Z,34.34364
2022-10-05T07:12:24.557Z,34.30017
2022-10-05T07:17:25.481Z,34.11525
2022-10-05T07:22:28.319Z,33.9484
2022-10-05T07:27:31.633Z,33.82951
2022-10-05T07:32:32.626Z,33.74582
2022-10-05T07:37:33.622Z,33.70382
2022-10-05T07:42:38.474Z,33.50768
2022-10-05T07:47:43.537Z,33.23633
2022-10-05T07:52:44.484Z,32.97214
2022-10-05T07:57:45.364Z,32.72942
2022-10-05T08:02:46.501Z,32.81145
2022-10-05T08:07:47.528Z,32.66953
2022-10-05T08:12:48.521Z,32.66831
2022-10-05T08:17:49.437Z,32.43866
2022-10-05T08:22:50.363Z,32.18819
2022-10-05T08:27:51.379Z,31.88928
2022-10-05T08:32:52.373Z,31.17019
2022-10-05T08:37:53.439Z,31.31596
2022-10-05T08:42:54.497Z,31.10616
2022-10-05T08:47:55.411Z,30.45494
2022-10-05T08:52:56.335Z,29.40622
2022-10-05T08:57:57.338Z,29.54474
2022-10-05T09:02:58.360Z,29.67117
2022-10-05T09:07:59.397Z,29.85511
2022-10-05T09:13:00.703Z,29.80811
2022-10-05T09:18:01.850Z,29.64397
2022-10-05T09:23:02.785Z,29.65104
2022-10-05T09:28:03.917Z,29.61561
2022-10-05T09:33:04.927Z,29.75689
2022-10-05T09:38:05.879Z,29.74527
2022-10-05T09:43:06.760Z,29.71141
2022-10-05T09:48:07.925Z,29.82838
2022-10-05T09:53:08.893Z,29.90023
2022-10-05T09:58:09.870Z,29.8385
2022-10-05T10:03:10.860Z,29.71801
2022-10-05T10:08:11.826Z,29.64856
2022-10-05T10:13:12.741Z,29.57003
2022-10-05T10:18:13.699Z,29.41606
2022-10-05T10:23:14.625Z,29.36746
2022-10-05T10:28:15.729Z,29.15678
2022-10-05T10:33:16.730Z,29.27334
2022-10-05T10:38:17.721Z,29.42768
2022-10-05T10:43:18.906Z,29.51488
2022-10-05T10:48:19.865Z,29.47932
2022-10-05T10:53:20.797Z,29.4363
2022-10-05T10:58:21.764Z,29.39766
2022-10-05T11:03:22.753Z,29.26591
2022-10-05T11:08:23.740Z,29.18061
2022-10-05T11:13:24.747Z,29.08741
2022-10-05T11:18:25.679Z,28.88102
2022-10-05T11:23:26.633Z,28.63178
2022-10-05T11:28:27.747Z,28.37032
2022-10-05T11:33:28.827Z,28.34975
2022-10-05T11:38:29.846Z,28.09241
2022-10-05T11:43:30.805Z,27.71538
2022-10-05T11:48:31.778Z,27.4929
2022-10-05T11:53:32.706Z,27.08871
2022-10-05T11:58:33.657Z,27.36753
2022-10-05T12:03:34.668Z,27.41559
2022-10-05T12:08:35.700Z,27.48432
2022-10-05T12:13:36.693Z,27.41461
2022-10-05T12:18:37.612Z,27.15729
2022-10-05T12:23:38.559Z,26.75412
2022-10-05T12:28:39.458Z,26.57639
2022-10-05T12:33:40.366Z,25.64653
2022-10-05T12:38:41.410Z,25.33677
2022-10-05T12:43:42.328Z,24.51104
2022-10-05T12:48:43.245Z,23.946
2022-10-05T12:53:44.188Z,23.17539
2022-10-05T12:58:45.114Z,22.67
2022-10-05T13:03:46.031Z,22.21519
2022-10-05T13:08:46.986Z,22.1439
2022-10-05T13:13:47.970Z,22.50773
2022-10-05T13:18:49.340Z,22.86181
2022-10-05T13:23:53.747Z,23.09687
2022-10-05T13:28:57.600Z,23.32049
2022-10-05T13:33:58.531Z,22.98662
2022-10-05T13:38:59.478Z,22.48655
2022-10-05T13:44:00.644Z,21.85069
2022-10-05T13:49:02.103Z,21.90143
2022-10-05T13:54:03.133Z,22.0043
2022-10-05T13:59:04.088Z,22.06203
2022-10-05T14:04:05.046Z,22.27517
2022-10-05T14:09:06.035Z,22.51818
2022-10-05T14:14:06.980Z,22.76149
2022-10-05T14:19:07.923Z,23.10118
2022-10-05T14:24:15.354Z,23.29193
2022-10-05T14:29:21.320Z,23.28285
2022-10-05T14:34:23.321Z,23.63612
2022-10-05T14:39:24.343Z,23.81835
2022-10-05T14:44:25.366Z,23.98428
2022-10-05T14:49:26.351Z,24.1024
2022-10-05T14:54:27.387Z,24.39373
2022-10-05T14:59:28.308Z,24.44449
2022-10-05T15:04:29.257Z,24.41182
2022-10-05T15:09:30.265Z,24.3787
2022-10-05T15:14:31.229Z,24.491
2022-10-05T15:19:32.237Z,24.53049
2022-10-05T15:24:33.153Z,24.6654
2022-10-05T15:29:34.087Z,24.75834
2022-10-05T15:34:35.131Z,24.92902
2022-10-05T15:39:36.083Z,25.1143
2022-10-05T15:44:36.989Z,25.2602
2022-10-05T15:49:37.974Z,25.35464
2022-10-05T15:54:38.892Z,25.48405
2022-10-05T15:59:39.849Z,25.70411
2022-10-05T16:04:40.879Z,25.78537
2022-10-05T16:09:41.981Z,25.96225
2022-10-05T16:14:42.874Z,26.25644
2022-10-05T16:19:43.837Z,26.386
2022-10-05T16:24:44.822Z,26.65392
2022-10-05T16:29:45.753Z,26.81207
2022-10-05T16:34:46.687Z,26.94506
2022-10-05T16:39:47.693Z,27.13219
2022-10-05T16:44:48.587Z,27.2065
2022-10-05T16:49:49.501Z,27.35349
2022-10-05T16:54:50.562Z,27.52978
2022-10-05T16:59:51.539Z,27.68897
2022-10-05T17:04:52.695Z,27.88261
2022-10-05T17:09:53.777Z,28.09494
2022-10-05T17:14:54.715Z,28.23517
2022-10-05T17:19:55.707Z,28.41083
2022-10-05T17:24:56.680Z,28.53309
2022-10-05T17:29:57.619Z,28.72886
2022-10-05T17:34:58.601Z,28.95977
2022-10-05T17:39:59.686Z,29.11202
2022-10-05T17:45:00.954Z,29.26317
2022-10-05T17:50:02.481Z,29.44004
2022-10-05T17:55:03.426Z,29.60332
2022-10-05T18:00:04.415Z,29.74228
2022-10-05T18:05:05.346Z,29.85788
2022-10-05T18:10:06.402Z,29.98536
2022-10-05T18:15:07.391Z,30.04552
2022-10-05T18:20:08.323Z,30.20334
2022-10-05T18:25:09.327Z,30.31886
2022-10-05T18:30:10.267Z,30.42909
2022-10-05T18:35:11.215Z,30.65851
2022-10-05T18:40:12.181Z,30.83982
2022-10-05T18:45:13.246Z,30.96651
2022-10-05T18:50:14.229Z,31.14142
2022-10-05T18:55:15.153Z,31.25584
2022-10-05T19:00:16.103Z,31.54475
2022-10-05T19:05:35.762Z,31.72512
2022-10-05T19:10:47.774Z,31.7846
2022-10-05T19:15:48.716Z,31.85609
2022-10-05T19:20:49.731Z,31.94677
2022-10-05T19:25:50.791Z,32.05518
2022-10-05T19:30:51.749Z,32.1033
2022-10-05T19:35:52.738Z,32.12707
2022-10-05T19:40:53.775Z,32.15067
2022-10-05T19:45:54.816Z,32.13233
2022-10-05T19:50:55.767Z,32.19848
2022-10-05T19:55:56.856Z,32.35458
2022-10-05T20:00:57.841Z,32.45618
2022-10-05T20:05:58.752Z,32.56389
2022-10-05T20:10:59.716Z,32.62983
2022-10-05T20:16:00.853Z,32.65923
2022-10-05T20:21:02.271Z,32.7375
2022-10-05T20:26:03.180Z,32.76681
2022-10-05T20:31:04.125Z,32.82087
2022-10-05T20:36:05.134Z,32.88794
2022-10-05T20:41:06.076Z,33.06236
2022-10-05T20:46:07.044Z,33.1401
2022-10-05T20:51:07.976Z,33.17593
2022-10-05T20:56:08.961Z,33.22386
2022-10-05T21:01:09.952Z,33.27757
2022-10-05T21:06:11.026Z,33.28319
2022-10-05T21:11:12.163Z,33.24737
2022-10-05T21:16:13.237Z,33.45779
2022-10-05T21:21:14.222Z,33.56533
2022-10-05T21:26:15.171Z,33.56467
2022-10-05T21:31:16.100Z,33.62463
2022-10-05T21:36:17.207Z,33.5358
2022-10-05T21:41:19.346Z,33.6778
2022-10-05T21:46:20.262Z,33.77876
2022-10-05T21:51:21.190Z,33.83193
2022-10-05T21:56:22.103Z,33.70601
2022-10-05T22:01:23.246Z,33.80147
2022-10-05T22:06:24.239Z,33.8907
2022-10-05T22:11:25.201Z,33.90795
2022-10-05T22:16:26.147Z,33.88321
2022-10-05T22:21:27.110Z,33.86468
2022-10-05T22:26:28.086Z,33.94882
2022-10-05T22:31:29.140Z,33.94835
2022-10-05T22:36:30.151Z,33.95978
2022-10-05T22:41:31.114Z,34.02488
2022-10-05T22:46:32.044Z,33.92249
2022-10-05T22:51:32.972Z,33.92227
2022-10-05T22:56:33.898Z,33.91139
2022-10-05T23:01:34.892Z,34.09081
2022-10-05T23:06:35.872Z,34.16261
2022-10-05T23:11:36.831Z,34.31826
2022-10-05T23:16:37.806Z,34.47361
2022-10-05T23:21:38.796Z,34.5682
2022-10-05T23:26:39.739Z,34.59755
2022-10-05T23:31:40.698Z,34.71667
2022-10-05T23:36:41.733Z,34.91947
2022-10-05T23:41:44.358Z,35.00276
2022-10-05T23:46:45.486Z,35.10381
2022-10-05T23:51:46.603Z,35.30081
2022-10-05T23:56:47.580Z,35.29969
